sensor_id;sensor_type;location;lat;lon;timestamp;pressure;altitude;pressure_sealevel;temperature;humidity
31088;BME280;17745;55.914;37.554;2022-09-09T00:00:26;99884.34;;;9.21;58.21
31088;BME280;17745;55.914;37.554;2022-09-09T00:03:03;99879.50;;;9.18;58.36
31088;BME280;17745;55.914;37.554;2022-09-09T00:05:42;99891.09;;;9.17;58.32
31088;BME280;17745;55.914;37.554;2022-09-09T00:08:18;99891.34;;;9.27;58.06
31088;BME280;17745;55.914;37.554;2022-09-09T00:10:50;99900.03;;;9.04;58.80
31088;BME280;17745;55.914;37.554;2022-09-09T00:13:25;99892.03;;;9.10;58.54
31088;BME280;17745;55.914;37.554;2022-09-09T00:16:02;99899.41;;;8.90;59.04
31088;BME280;17745;55.914;37.554;2022-09-09T00:18:50;99888.84;;;8.90;59.11
31088;BME280;17745;55.914;37.554;2022-09-09T00:21:24;99893.06;;;8.79;59.55
31088;BME280;17745;55.914;37.554;2022-09-09T00:23:57;99899.31;;;8.96;59.08
31088;BME280;17745;55.914;37.554;2022-09-09T00:26:32;99897.84;;;9.00;58.93
31088;BME280;17745;55.914;37.554;2022-09-09T00:29:10;99905.34;;;8.85;59.33
31088;BME280;17745;55.914;37.554;2022-09-09T00:31:40;99895.47;;;8.80;59.53
31088;BME280;17745;55.914;37.554;2022-09-09T00:34:13;99903.16;;;8.82;59.45
31088;BME280;17745;55.914;37.554;2022-09-09T00:36:42;99903.50;;;8.85;59.34
31088;BME280;17745;55.914;37.554;2022-09-09T00:39:19;99906.09;;;8.73;59.61
31088;BME280;17745;55.914;37.554;2022-09-09T00:42:02;99914.03;;;8.55;60.25
31088;BME280;17745;55.914;37.554;2022-09-09T00:44:36;99911.63;;;8.72;59.79
31088;BME280;17745;55.914;37.554;2022-09-09T00:47:15;99906.91;;;8.37;60.65
31088;BME280;17745;55.914;37.554;2022-09-09T00:50:00;99916.56;;;8.43;60.76
31088;BME280;17745;55.914;37.554;2022-09-09T00:52:36;99927.16;;;8.62;60.35
31088;BME280;17745;55.914;37.554;2022-09-09T00:55:15;99919.66;;;8.40;60.97
31088;BME280;17745;55.914;37.554;2022-09-09T00:57:45;99924.59;;;8.55;60.60
31088;BME280;17745;55.914;37.554;2022-09-09T01:00:22;99917.25;;;8.76;59.92
31088;BME280;17745;55.914;37.554;2022-09-09T01:05:53;99925.84;;;7.64;63.05
31088;BME280;17745;55.914;37.554;2022-09-09T01:08:36;99924.94;;;8.40;61.07
31088;BME280;17745;55.914;37.554;2022-09-09T01:11:17;99928.78;;;8.63;60.26
31088;BME280;17745;55.914;37.554;2022-09-09T01:13:53;99933.75;;;8.34;60.99
31088;BME280;17745;55.914;37.554;2022-09-09T01:16:26;99939.03;;;8.34;60.82
31088;BME280;17745;55.914;37.554;2022-09-09T01:18:58;99927.22;;;8.55;60.26
31088;BME280;17745;55.914;37.554;2022-09-09T01:21:39;99926.28;;;8.49;60.50
31088;BME280;17745;55.914;37.554;2022-09-09T01:24:22;99930.25;;;8.58;60.26
31088;BME280;17745;55.914;37.554;2022-09-09T01:27:19;99933.66;;;8.22;61.42
31088;BME280;17745;55.914;37.554;2022-09-09T01:29:51;99930.72;;;8.30;61.19
31088;BME280;17745;55.914;37.554;2022-09-09T01:32:40;99935.03;;;8.43;60.65
31088;BME280;17745;55.914;37.554;2022-09-09T01:35:31;99932.78;;;8.47;60.67
31088;BME280;17745;55.914;37.554;2022-09-09T01:38:17;99939.84;;;8.71;60.05
31088;BME280;17745;55.914;37.554;2022-09-09T01:40:46;99946.72;;;8.72;60.02
31088;BME280;17745;55.914;37.554;2022-09-09T01:47:07;99949.78;;;7.88;62.46
31088;BME280;17745;55.914;37.554;2022-09-09T01:49:38;99950.03;;;8.49;60.73
31088;BME280;17745;55.914;37.554;2022-09-09T01:52:07;99959.66;;;8.62;60.31
31088;BME280;17745;55.914;37.554;2022-09-09T01:54:36;99958.69;;;8.75;60.07
31088;BME280;17745;55.914;37.554;2022-09-09T01:57:11;99956.31;;;8.67;60.21
31088;BME280;17745;55.914;37.554;2022-09-09T01:59:51;99957.53;;;8.52;60.66
31088;BME280;17745;55.914;37.554;2022-09-09T02:02:42;99968.16;;;8.20;61.42
31088;BME280;17745;55.914;37.554;2022-09-09T02:05:27;99967.50;;;8.50;60.53
31088;BME280;17745;55.914;37.554;2022-09-09T02:08:07;99968.66;;;8.54;60.34
31088;BME280;17745;55.914;37.554;2022-09-09T02:10:45;99969.00;;;8.39;60.70
31088;BME280;17745;55.914;37.554;2022-09-09T02:13:17;99974.78;;;8.29;61.00
31088;BME280;17745;55.914;37.554;2022-09-09T02:15:53;99968.03;;;8.34;60.73
31088;BME280;17745;55.914;37.554;2022-09-09T02:18:29;99968.47;;;8.30;60.94
31088;BME280;17745;55.914;37.554;2022-09-09T02:21:02;99969.22;;;8.38;60.79
31088;BME280;17745;55.914;37.554;2022-09-09T02:23:31;99979.69;;;8.26;61.13
31088;BME280;17745;55.914;37.554;2022-09-09T02:26:19;99981.00;;;8.35;60.84
31088;BME280;17745;55.914;37.554;2022-09-09T02:29:09;99973.78;;;8.49;60.57
31088;BME280;17745;55.914;37.554;2022-09-09T02:31:44;99977.16;;;8.56;60.37
31088;BME280;17745;55.914;37.554;2022-09-09T02:34:24;99987.66;;;8.63;60.16
31088;BME280;17745;55.914;37.554;2022-09-09T02:36:55;99982.94;;;8.47;60.49
31088;BME280;17745;55.914;37.554;2022-09-09T02:39:44;99981.75;;;8.42;60.48
31088;BME280;17745;55.914;37.554;2022-09-09T02:42:14;100003.50;;;8.38;60.62
31088;BME280;17745;55.914;37.554;2022-09-09T02:44:43;100007.03;;;8.32;60.80
31088;BME280;17745;55.914;37.554;2022-09-09T02:47:29;99999.47;;;7.91;61.72
31088;BME280;17745;55.914;37.554;2022-09-09T02:50:34;100011.03;;;7.90;62.04
31088;BME280;17745;55.914;37.554;2022-09-09T02:53:18;100007.13;;;8.18;61.13
31088;BME280;17745;55.914;37.554;2022-09-09T02:55:55;100000.09;;;7.86;62.02
31088;BME280;17745;55.914;37.554;2022-09-09T02:58:35;100020.75;;;7.90;61.91
31088;BME280;17745;55.914;37.554;2022-09-09T03:01:18;100011.50;;;8.06;61.35
31088;BME280;17745;55.914;37.554;2022-09-09T03:03:48;100015.16;;;7.79;62.16
31088;BME280;17745;55.914;37.554;2022-09-09T03:06:48;100013.44;;;7.92;61.74
31088;BME280;17745;55.914;37.554;2022-09-09T03:09:46;100008.09;;;7.98;61.68
31088;BME280;17745;55.914;37.554;2022-09-09T03:12:35;100012.41;;;7.67;62.61
31088;BME280;17745;55.914;37.554;2022-09-09T03:15:45;100010.16;;;7.64;62.65
31088;BME280;17745;55.914;37.554;2022-09-09T03:18:50;100021.62;;;7.83;62.13
31088;BME280;17745;55.914;37.554;2022-09-09T03:45:40;100050.44;;;7.78;62.63
31088;BME280;17745;55.914;37.554;2022-09-09T03:58:21;100046.28;;;7.96;62.44
31088;BME280;17745;55.914;37.554;2022-09-09T06:40:37;100119.91;;;11.64;51.42
31088;BME280;17745;55.914;37.554;2022-09-09T06:43:29;100134.66;;;10.36;53.01
31088;BME280;17745;55.914;37.554;2022-09-09T06:46:11;100132.41;;;10.51;52.80
31088;BME280;17745;55.914;37.554;2022-09-09T06:48:50;100143.66;;;11.18;51.58
31088;BME280;17745;55.914;37.554;2022-09-09T06:51:32;100148.09;;;11.82;50.40
31088;BME280;17745;55.914;37.554;2022-09-09T06:54:03;100146.66;;;11.75;50.41
31088;BME280;17745;55.914;37.554;2022-09-09T06:56:49;100159.75;;;11.81;50.10
31088;BME280;17745;55.914;37.554;2022-09-09T06:59:28;100152.53;;;12.06;49.37
31088;BME280;17745;55.914;37.554;2022-09-09T07:02:22;100149.53;;;12.02;49.29
31088;BME280;17745;55.914;37.554;2022-09-09T07:04:58;100153.16;;;12.13;49.31
31088;BME280;17745;55.914;37.554;2022-09-09T07:08:04;100156.53;;;11.38;49.99
31088;BME280;17745;55.914;37.554;2022-09-09T07:10:44;100155.13;;;11.48;49.53
31088;BME280;17745;55.914;37.554;2022-09-09T07:13:47;100166.97;;;11.69;49.36
31088;BME280;17745;55.914;37.554;2022-09-09T07:16:45;100155.91;;;11.60;48.79
31088;BME280;17745;55.914;37.554;2022-09-09T07:19:15;100162.75;;;11.44;48.89
31088;BME280;17745;55.914;37.554;2022-09-09T07:21:43;100153.81;;;10.85;49.98
31088;BME280;17745;55.914;37.554;2022-09-09T07:24:15;100160.09;;;11.56;48.18
31088;BME280;17745;55.914;37.554;2022-09-09T07:26:58;100167.75;;;12.10;46.98
31088;BME280;17745;55.914;37.554;2022-09-09T07:29:50;100154.78;;;11.85;46.77
31088;BME280;17745;55.914;37.554;2022-09-09T07:32:38;100162.25;;;11.88;47.10
31088;BME280;17745;55.914;37.554;2022-09-09T07:35:22;100172.25;;;11.69;47.43
31088;BME280;17745;55.914;37.554;2022-09-09T07:38:01;100179.87;;;11.65;47.78
31088;BME280;17745;55.914;37.554;2022-09-09T07:40:38;100180.75;;;11.83;47.19
31088;BME280;17745;55.914;37.554;2022-09-09T07:43:14;100183.81;;;12.04;46.80
31088;BME280;17745;55.914;37.554;2022-09-09T07:45:47;100183.88;;;11.80;46.87
31088;BME280;17745;55.914;37.554;2022-09-09T07:48:33;100189.56;;;11.59;46.88
31088;BME280;17745;55.914;37.554;2022-09-09T07:51:09;100188.63;;;12.70;45.25
31088;BME280;17745;55.914;37.554;2022-09-09T07:53:40;100179.78;;;13.21;44.61
31088;BME280;17745;55.914;37.554;2022-09-09T07:56:13;100189.19;;;12.72;44.25
31088;BME280;17745;55.914;37.554;2022-09-09T07:59:12;100186.88;;;13.15;43.35
31088;BME280;17745;55.914;37.554;2022-09-09T08:01:44;100186.88;;;13.15;43.35
31088;BME280;17745;55.914;37.554;2022-09-09T08:04:14;100191.09;;;13.33;42.97
31088;BME280;17745;55.914;37.554;2022-09-09T08:06:45;100192.44;;;13.13;43.41
31088;BME280;17745;55.914;37.554;2022-09-09T08:09:19;100195.47;;;12.83;43.80
31088;BME280;17745;55.914;37.554;2022-09-09T08:11:51;100190.34;;;13.15;43.31
31088;BME280;17745;55.914;37.554;2022-09-09T08:14:28;100185.50;;;13.74;42.74
31088;BME280;17745;55.914;37.554;2022-09-09T08:16:58;100209.59;;;13.23;42.57
31088;BME280;17745;55.914;37.554;2022-09-09T08:19:41;100196.75;;;12.97;43.50
31088;BME280;17745;55.914;37.554;2022-09-09T08:22:16;100188.59;;;13.66;42.52
31088;BME280;17745;55.914;37.554;2022-09-09T08:24:48;100196.66;;;13.49;42.53
31088;BME280;17745;55.914;37.554;2022-09-09T08:27:17;100184.31;;;13.87;42.10
31088;BME280;17745;55.914;37.554;2022-09-09T08:29:47;100193.41;;;14.19;41.76
31088;BME280;17745;55.914;37.554;2022-09-09T08:32:16;100186.97;;;14.42;40.98
31088;BME280;17745;55.914;37.554;2022-09-09T08:35:22;100194.16;;;13.02;41.84
31088;BME280;17745;55.914;37.554;2022-09-09T08:42:33;100196.56;;;13.04;41.54
31088;BME280;17745;55.914;37.554;2022-09-09T08:50:27;100192.22;;;14.04;40.09
31088;BME280;17745;55.914;37.554;2022-09-09T08:57:57;100201.03;;;14.70;38.38
31088;BME280;17745;55.914;37.554;2022-09-09T09:05:09;100208.25;;;15.07;38.11
31088;BME280;17745;55.914;37.554;2022-09-09T09:11:08;100208.53;;;14.40;39.93
31088;BME280;17745;55.914;37.554;2022-09-09T09:13:40;100205.97;;;14.51;40.05
31088;BME280;17745;55.914;37.554;2022-09-09T09:16:19;100205.66;;;14.75;39.82
31088;BME280;17745;55.914;37.554;2022-09-09T09:18:51;100209.00;;;14.65;40.45
31088;BME280;17745;55.914;37.554;2022-09-09T09:21:31;100211.53;;;14.77;40.21
31088;BME280;17745;55.914;37.554;2022-09-09T09:24:05;100206.03;;;15.42;39.56
31088;BME280;17745;55.914;37.554;2022-09-09T09:27:31;100197.03;;;15.58;37.87
31088;BME280;17745;55.914;37.554;2022-09-09T09:30:14;100204.94;;;16.12;36.87
31088;BME280;17745;55.914;37.554;2022-09-09T09:32:51;100207.91;;;16.52;36.01
31088;BME280;17745;55.914;37.554;2022-09-09T09:35:22;100208.47;;;16.54;34.68
31088;BME280;17745;55.914;37.554;2022-09-09T09:37:52;100200.16;;;16.55;34.67
31088;BME280;17745;55.914;37.554;2022-09-09T09:40:22;100205.78;;;16.69;34.66
31088;BME280;17745;55.914;37.554;2022-09-09T09:42:58;100209.78;;;16.77;34.57
31088;BME280;17745;55.914;37.554;2022-09-09T09:45:33;100212.75;;;16.55;34.45
31088;BME280;17745;55.914;37.554;2022-09-09T09:48:05;100209.22;;;16.08;34.75
31088;BME280;17745;55.914;37.554;2022-09-09T09:50:34;100182.56;;;15.49;35.70
31088;BME280;17745;55.914;37.554;2022-09-09T09:53:04;100206.06;;;15.47;36.08
31088;BME280;17745;55.914;37.554;2022-09-09T09:55:36;100206.19;;;14.77;37.15
31088;BME280;17745;55.914;37.554;2022-09-09T09:58:14;100211.69;;;15.03;36.70
31088;BME280;17745;55.914;37.554;2022-09-09T10:00:48;100204.66;;;14.86;36.48
31088;BME280;17745;55.914;37.554;2022-09-09T10:03:24;100207.91;;;14.93;36.68
31088;BME280;17745;55.914;37.554;2022-09-09T10:05:53;100205.50;;;14.92;37.03
31088;BME280;17745;55.914;37.554;2022-09-09T10:08:22;100210.47;;;15.21;36.76
31088;BME280;17745;55.914;37.554;2022-09-09T10:11:15;100210.16;;;15.76;35.79
31088;BME280;17745;55.914;37.554;2022-09-09T10:14:03;100197.78;;;16.38;34.98
31088;BME280;17745;55.914;37.554;2022-09-09T10:16:42;100207.41;;;16.60;34.69
31088;BME280;17745;55.914;37.554;2022-09-09T10:19:16;100205.78;;;16.18;34.54
31088;BME280;17745;55.914;37.554;2022-09-09T10:22:10;100211.38;;;16.37;34.77
31088;BME280;17745;55.914;37.554;2022-09-09T10:25:19;100203.06;;;15.97;34.76
31088;BME280;17745;55.914;37.554;2022-09-09T10:28:13;100210.53;;;15.95;34.78
31088;BME280;17745;55.914;37.554;2022-09-09T10:31:27;100215.88;;;15.95;35.01
31088;BME280;17745;55.914;37.554;2022-09-09T10:34:49;100211.75;;;15.71;34.81
31088;BME280;17745;55.914;37.554;2022-09-09T10:37:53;100211.75;;;15.66;34.28
31088;BME280;17745;55.914;37.554;2022-09-09T10:40:32;100213.16;;;15.90;34.57
31088;BME280;17745;55.914;37.554;2022-09-09T10:43:15;100213.50;;;16.04;34.10
31088;BME280;17745;55.914;37.554;2022-09-09T10:45:54;100221.81;;;16.33;33.21
31088;BME280;17745;55.914;37.554;2022-09-09T10:59:12;100226.28;;;14.90;36.44
31088;BME280;17745;55.914;37.554;2022-09-09T11:01:44;100218.97;;;15.18;35.91
31088;BME280;17745;55.914;37.554;2022-09-09T11:04:35;100219.28;;;15.26;35.70
31088;BME280;17745;55.914;37.554;2022-09-09T11:07:41;100211.62;;;15.40;35.46
31088;BME280;17745;55.914;37.554;2022-09-09T11:10:37;100216.50;;;15.54;35.52
31088;BME280;17745;55.914;37.554;2022-09-09T11:13:54;100210.78;;;15.98;35.29
31088;BME280;17745;55.914;37.554;2022-09-09T11:16:29;100213.56;;;16.66;34.92
31088;BME280;17745;55.914;37.554;2022-09-09T11:19:16;100196.78;;;17.52;34.07
31088;BME280;17745;55.914;37.554;2022-09-09T11:21:50;100196.84;;;19.25;32.42
31088;BME280;17745;55.914;37.554;2022-09-09T11:26:28;100195.50;;;20.76;30.47
31088;BME280;17745;55.914;37.554;2022-09-09T11:28:28;100199.91;;;20.20;29.64
31088;BME280;17745;55.914;37.554;2022-09-09T11:31:21;100193.94;;;18.63;30.67
31088;BME280;17745;55.914;37.554;2022-09-09T11:47:51;100216.03;;;15.14;36.29
31088;BME280;17745;55.914;37.554;2022-09-09T11:50:31;100206.19;;;15.78;35.68
31088;BME280;17745;55.914;37.554;2022-09-09T11:53:18;100210.06;;;16.81;34.12
31088;BME280;17745;55.914;37.554;2022-09-09T11:56:11;100205.50;;;18.23;32.24
31088;BME280;17745;55.914;37.554;2022-09-09T11:58:53;100200.88;;;20.76;29.17
31088;BME280;17745;55.914;37.554;2022-09-09T12:01:29;100192.84;;;22.20;26.98
31088;BME280;17745;55.914;37.554;2022-09-09T12:04:27;100193.47;;;23.43;25.93
31088;BME280;17745;55.914;37.554;2022-09-09T12:07:31;100194.41;;;24.70;25.30
31088;BME280;17745;55.914;37.554;2022-09-09T12:10:27;100192.00;;;25.89;24.41
31088;BME280;17745;55.914;37.554;2022-09-09T12:13:27;100186.25;;;26.58;22.78
31088;BME280;17745;55.914;37.554;2022-09-09T12:16:29;100201.19;;;25.97;22.87
31088;BME280;17745;55.914;37.554;2022-09-09T12:19:13;100188.12;;;25.18;22.63
31088;BME280;17745;55.914;37.554;2022-09-09T12:22:00;100179.31;;;23.29;23.64
31088;BME280;17745;55.914;37.554;2022-09-09T12:24:43;100194.28;;;21.16;25.37
31088;BME280;17745;55.914;37.554;2022-09-09T12:27:33;100182.63;;;19.88;27.24
31088;BME280;17745;55.914;37.554;2022-09-09T12:30:22;100179.31;;;18.79;28.93
31088;BME280;17745;55.914;37.554;2022-09-09T12:33:11;100192.34;;;17.87;30.52
31088;BME280;17745;55.914;37.554;2022-09-09T12:35:42;100195.16;;;17.56;30.88
31088;BME280;17745;55.914;37.554;2022-09-09T12:38:17;100192.34;;;17.21;31.27
31088;BME280;17745;55.914;37.554;2022-09-09T12:40:54;100199.59;;;17.15;31.18
31088;BME280;17745;55.914;37.554;2022-09-09T12:43:24;100204.62;;;17.38;31.03
31088;BME280;17745;55.914;37.554;2022-09-09T12:45:57;100198.66;;;17.56;30.84
31088;BME280;17745;55.914;37.554;2022-09-09T12:48:33;100197.31;;;19.08;29.02
31088;BME280;17745;55.914;37.554;2022-09-09T12:51:06;100198.44;;;19.02;28.96
31088;BME280;17745;55.914;37.554;2022-09-09T12:54:13;100189.31;;;19.90;28.34
31088;BME280;17745;55.914;37.554;2022-09-09T12:56:46;100202.84;;;20.56;27.10
31088;BME280;17745;55.914;37.554;2022-09-09T12:59:24;100192.84;;;21.46;26.02
31088;BME280;17745;55.914;37.554;2022-09-09T13:09:46;100183.78;;;23.42;23.21
31088;BME280;17745;55.914;37.554;2022-09-09T13:12:19;100190.38;;;24.03;22.66
31088;BME280;17745;55.914;37.554;2022-09-09T13:14:50;100183.50;;;23.96;21.66
31088;BME280;17745;55.914;37.554;2022-09-09T13:17:33;100183.34;;;23.93;21.73
